EHQE

Hoorn-a Sea

Hoorn-a Sea, The Netherlands
METAR EHQE 150025Z AUTO 19015KT 9999 FEW042 OVC049 19/16 Q1016 W///H///
Observed Flight Rules
Aug-15 @ 00:25 UTC (42 minutes ago) Visual Flight Rules
Wind Visibility Clouds
190° at 15 knots 10,000+ meters
  • Few at 4,200' AGL
  • Overcast at 4,900' AGL
Temperatures Readings
Current 19°C / 66°F
Dewpoint 16°C / 61°F
Humidity 83%
Altimeter 30" Hg
Pressure 1016 hPa
Elevation 50
METAR EHQE 150025Z AUTO 19015KT 9999 FEW042 OVC049 19/16 Q1016 W///H///
Observed Flight Rules
Aug-15 @ 00:25 UTC
(42 minutes ago)
VFR
Wind Visibility
190° at 15 knots 10,000+ meters
Clouds
  • Few at 4,200' AGL
  • Overcast at 4,900' AGL
Temperature Dewpoint
19°C / 66°F 16°C / 61°F
Humidity Altimeter Pressure
83% 30" Hg 1016 hPa